createdAt,value
2023-03-10T00:02:31.129Z,7.4
2023-03-10T00:08:08.626Z,7.3
2023-03-10T00:14:02.657Z,7.3
2023-03-10T00:19:56.276Z,7.1
2023-03-10T00:25:32.974Z,7
2023-03-10T00:31:26.824Z,6.8
2023-03-10T00:37:05.195Z,6.8
2023-03-10T00:42:59.181Z,6.8
2023-03-10T00:48:36.477Z,6.7
2023-03-10T00:54:13.546Z,6.6
2023-03-10T01:00:05.896Z,6.6
2023-03-10T01:06:00.085Z,6.6
2023-03-10T01:11:52.966Z,6.6
2023-03-10T01:17:46.326Z,6.6
2023-03-10T01:23:23.682Z,6.6
2023-03-10T01:29:00.710Z,6.6
2023-03-10T01:34:39.196Z,6.7
2023-03-10T01:40:03.033Z,6.7
2023-03-10T01:45:55.497Z,6.7
2023-03-10T01:51:48.298Z,6.6
2023-03-10T01:57:41.502Z,6.6
2023-03-10T02:03:34.948Z,6.7
2023-03-10T02:09:00.601Z,6.6
2023-03-10T02:14:23.233Z,6.7
2023-03-10T02:20:00.747Z,6.7
2023-03-10T02:26:02.832Z,6.6
2023-03-10T02:32:06.933Z,6.6
2023-03-10T02:37:44.094Z,6.8
2023-03-10T02:43:21.857Z,6.8
2023-03-10T02:48:44.840Z,6.7
2023-03-10T02:54:21.622Z,6.6
2023-03-10T03:00:14.460Z,6.6
2023-03-10T03:05:52.208Z,6.7
2023-03-10T03:11:13.148Z,6.8
2023-03-10T03:16:52.894Z,6.8
2023-03-10T03:22:45.985Z,6.9
2023-03-10T03:28:07.675Z,6.9
2023-03-10T03:34:04.001Z,7
2023-03-10T03:39:41.880Z,7
2023-03-10T03:45:34.516Z,7
2023-03-10T03:51:30.935Z,7
2023-03-10T03:57:23.754Z,6.9
2023-03-10T04:03:01.124Z,6.8
2023-03-10T04:08:39.029Z,6.8
2023-03-10T04:14:30.869Z,6.9
2023-03-10T04:20:40.080Z,6.9
2023-03-10T04:26:02.387Z,6.9
2023-03-10T04:31:40.559Z,7
2023-03-10T04:37:42.433Z,7
2023-03-10T04:43:19.204Z,7
2023-03-10T04:49:07.907Z,7
2023-03-10T04:54:44.314Z,7
2023-03-10T05:00:22.297Z,7
2023-03-10T05:06:26.056Z,6.9
2023-03-10T05:12:18.198Z,6.9
2023-03-10T05:18:10.555Z,6.9
2023-03-10T05:23:48.289Z,6.9
2023-03-10T05:29:11.229Z,6.9
2023-03-10T05:34:48.806Z,7
2023-03-10T05:40:25.776Z,7.2
2023-03-10T05:46:18.603Z,7.3
2023-03-10T05:52:14.164Z,7.6
2023-03-10T05:57:51.565Z,8
2023-03-10T06:03:28.478Z,8.6
2023-03-10T06:09:25.754Z,9.6
2023-03-10T06:15:18.656Z,10.8
2023-03-10T06:21:13.142Z,12
2023-03-10T06:27:05.771Z,12.8
2023-03-10T06:32:58.855Z,13.4
2023-03-10T06:38:35.854Z,13.8
2023-03-10T06:44:14.662Z,14.1
2023-03-10T06:49:53.790Z,14.8
2023-03-10T06:55:31.009Z,15.3
2023-03-10T07:00:52.979Z,15.8
2023-03-10T07:06:31.225Z,16.3
2023-03-10T07:12:10.161Z,16.8
2023-03-10T07:18:04.348Z,18.4
2023-03-10T07:23:41.920Z,20.5
2023-03-10T07:29:35.831Z,23
2023-03-10T07:35:28.936Z,24.5
2023-03-10T07:41:22.434Z,25.5
2023-03-10T07:47:16.286Z,28.3
2023-03-10T07:52:53.168Z,33.9
2023-03-10T07:58:31.140Z,35.9
2023-03-10T08:04:24.723Z,36
2023-03-10T08:10:17.957Z,35.4
2023-03-10T08:16:12.223Z,34.8
2023-03-10T08:21:50.193Z,34.3
2023-03-10T08:27:12.188Z,33.9
2023-03-10T08:33:25.051Z,33.9
2023-03-10T08:39:06.986Z,35.1
2023-03-10T08:45:08.459Z,37.5
2023-03-10T08:50:47.095Z,38.8
2023-03-10T08:56:27.844Z,39.8
2023-03-10T09:02:22.279Z,42.2
2023-03-10T09:08:17.949Z,45.1
2023-03-10T09:14:25.651Z,44.3
2023-03-10T09:20:21.009Z,42.9
2023-03-10T09:26:14.735Z,41.4
2023-03-10T09:32:20.391Z,39.7
2023-03-10T09:38:10.662Z,38.5
2023-03-10T09:44:21.020Z,36.9
2023-03-10T09:50:13.408Z,35.6
2023-03-10T09:56:16.328Z,34.6
2023-03-10T10:02:09.018Z,33.2
2023-03-10T10:08:13.088Z,31.9
2023-03-10T10:14:28.132Z,30.9
2023-03-10T10:21:11.396Z,30.2
2023-03-10T10:27:14.508Z,29.5
2023-03-10T10:33:07.977Z,28.7
2023-03-10T10:39:09.593Z,27.9
2023-03-10T10:44:50.154Z,27.3
2023-03-10T10:50:28.411Z,26.6
2023-03-10T10:56:21.144Z,25.9
2023-03-10T11:02:14.982Z,25.3
2023-03-10T11:08:08.400Z,24.7
2023-03-10T11:13:46.448Z,23.9
2023-03-10T11:19:25.614Z,23.1
2023-03-10T11:25:18.107Z,22.4
2023-03-10T11:31:11.293Z,21.7
2023-03-10T11:37:12.454Z,21.1
2023-03-10T11:42:50.708Z,20.4
2023-03-10T11:48:42.737Z,19.8
2023-03-10T11:54:34.234Z,19.3
2023-03-10T12:00:28.075Z,18.9
2023-03-10T12:06:22.073Z,18.5
2023-03-10T12:11:59.815Z,18.2
2023-03-10T12:17:54.105Z,17.8
2023-03-10T12:23:46.238Z,17.6
2023-03-10T12:29:38.290Z,17.4
2023-03-10T12:35:32.008Z,17.5
2023-03-10T12:41:10.259Z,17.6
2023-03-10T12:47:04.046Z,17.9
2023-03-10T12:52:57.764Z,17.9
2023-03-10T12:58:51.561Z,18
2023-03-10T13:04:36.590Z,18
2023-03-10T13:10:13.522Z,18.2
2023-03-10T13:15:51.816Z,18.3
2023-03-10T13:21:44.801Z,18.2
2023-03-10T13:27:06.415Z,17.9
2023-03-10T13:32:47.111Z,17.9
2023-03-10T13:38:38.255Z,17.8
2023-03-10T13:44:28.654Z,18.1
2023-03-10T13:50:21.370Z,18.4
2023-03-10T13:56:12.678Z,19.6
2023-03-10T14:02:05.433Z,20.6
2023-03-10T14:08:01.977Z,21.3
2023-03-10T14:13:55.540Z,22.4
2023-03-10T14:19:17.491Z,27.4
2023-03-10T14:25:10.246Z,28.8
2023-03-10T14:30:02.569Z,28.4
2023-03-10T14:41:37.627Z,26.9
2023-03-10T14:47:32.002Z,25.9
2023-03-10T14:53:37.268Z,24.6
2023-03-10T14:59:30.392Z,22.9
2023-03-10T15:05:27.645Z,21.3
2023-03-10T15:11:35.904Z,19.8
2023-03-10T15:17:29.911Z,18.4
2023-03-10T15:23:07.330Z,17.2
2023-03-10T15:28:59.333Z,15.9
2023-03-10T15:34:54.432Z,14.8
2023-03-10T15:41:00.155Z,14.2
2023-03-10T15:46:54.314Z,13.9
2023-03-10T15:52:47.285Z,13.6
2023-03-10T15:58:39.809Z,13.3
2023-03-10T16:04:32.454Z,13.1
2023-03-10T16:10:25.457Z,12.8
2023-03-10T16:16:18.936Z,12.6
2023-03-10T16:21:56.364Z,12.3
2023-03-10T16:27:34.877Z,12
2023-03-10T16:33:27.572Z,11.7
2023-03-10T16:39:20.343Z,11.4
2023-03-10T16:45:14.014Z,11.1
2023-03-10T16:50:19.608Z,10.9
2023-03-10T16:55:09.977Z,10.7
2023-03-10T17:00:48.021Z,10.4
2023-03-10T17:06:27.636Z,10.3
2023-03-10T17:12:30.251Z,10.1
2023-03-10T17:18:23.826Z,9.9
2023-03-10T17:24:01.569Z,9.8
2023-03-10T17:29:56.412Z,9.7
2023-03-10T17:35:50.105Z,9.6
2023-03-10T17:41:42.305Z,9.6
2023-03-10T17:47:48.777Z,9.6
2023-03-10T17:53:42.338Z,9.6
2023-03-10T17:59:19.136Z,9.4
2023-03-10T18:05:15.654Z,9.4
2023-03-10T18:11:08.090Z,9.4
2023-03-10T18:16:59.523Z,9.3
2023-03-10T18:22:52.453Z,9.2
2023-03-10T18:28:30.041Z,9.1
2023-03-10T18:34:22.798Z,9
2023-03-10T18:40:16.733Z,8.9
2023-03-10T18:46:09.340Z,8.9
2023-03-10T18:51:45.776Z,8.8
2023-03-10T18:57:38.644Z,8.8
2023-03-10T19:03:16.845Z,8.7
2023-03-10T19:09:10.247Z,8.6
2023-03-10T19:15:02.979Z,8.5
2023-03-10T19:20:56.663Z,8.4
2023-03-10T19:26:50.068Z,8.3
2023-03-10T19:32:42.794Z,8.3
2023-03-10T19:38:21.785Z,8.2
2023-03-10T19:43:42.748Z,8.1
2023-03-10T19:49:36.191Z,8.1
2023-03-10T19:55:29.670Z,8.1
2023-03-10T20:01:07.191Z,8.1
2023-03-10T20:06:46.133Z,8.1
2023-03-10T20:12:23.462Z,8.2
2023-03-10T20:18:15.678Z,8.2
2023-03-10T20:24:07.676Z,8.1
2023-03-10T20:29:29.871Z,8.1
2023-03-10T20:35:06.721Z,8.1
2023-03-10T20:41:00.290Z,8.1
2023-03-10T20:46:39.043Z,8.1
2023-03-10T20:52:31.269Z,8.1
2023-03-10T20:58:24.348Z,8.1
2023-03-10T21:04:18.283Z,8.1
2023-03-10T21:09:55.274Z,8.1
2023-03-10T21:15:32.711Z,8
2023-03-10T21:21:26.169Z,8
2023-03-10T21:26:18.960Z,8
2023-03-10T21:32:11.913Z,8
2023-03-10T21:38:04.766Z,8
2023-03-10T21:43:57.154Z,8.1
2023-03-10T21:49:50.058Z,8.1
2023-03-10T21:55:44.078Z,8.1
2023-03-10T22:01:20.125Z,8.2
2023-03-10T22:06:57.772Z,8.2
2023-03-10T22:12:50.365Z,8.3
2023-03-10T22:18:26.671Z,8.3
2023-03-10T22:24:19.162Z,8.3
2023-03-10T22:30:12.060Z,8.3
2023-03-10T22:36:04.436Z,8.3
2023-03-10T22:41:41.515Z,8.3
2023-03-10T22:52:41.406Z,8.3
2023-03-10T22:58:33.896Z,8.4
2023-03-10T23:03:41.558Z,8.4
2023-03-10T23:09:18.117Z,8.4
2023-03-10T23:15:18.855Z,8.4
2023-03-10T23:21:16.928Z,8.4
2023-03-10T23:26:54.326Z,8.4
2023-03-10T23:32:47.202Z,8.4
2023-03-10T23:38:25.098Z,8.4
2023-03-10T23:43:30.886Z,8.4
2023-03-10T23:49:09.231Z,8.4
2023-03-10T23:54:47.249Z,8.4
